createdAt,value
2018-09-06T00:01:42.263Z,12.43
2018-09-06T00:04:10.413Z,15.63
2018-09-06T00:06:38.509Z,11.17
2018-09-06T00:09:08.456Z,12.00
2018-09-06T00:11:36.749Z,10.47
2018-09-06T00:14:04.916Z,14.23
2018-09-06T00:16:33.029Z,16.53
2018-09-06T00:19:01.139Z,14.30
2018-09-06T00:21:29.431Z,14.93
2018-09-06T00:23:58.154Z,14.97
2018-09-06T00:26:26.279Z,13.67
2018-09-06T00:28:54.452Z,17.13
2018-09-06T00:31:22.557Z,13.20
2018-09-06T00:33:50.824Z,13.43
2018-09-06T00:36:18.913Z,15.83
2018-09-06T00:38:47.041Z,14.63
2018-09-06T00:41:21.800Z,14.97
2018-09-06T00:43:49.876Z,16.03
2018-09-06T00:46:17.960Z,14.70
2018-09-06T00:48:46.104Z,16.93
2018-09-06T00:51:14.233Z,13.33
2018-09-06T00:53:42.387Z,13.77
2018-09-06T00:56:10.538Z,14.53
2018-09-06T00:58:38.722Z,15.57
2018-09-06T01:01:06.825Z,19.33
2018-09-06T01:03:34.960Z,16.20
2018-09-06T01:06:03.072Z,15.37
2018-09-06T01:08:31.173Z,16.43
2018-09-06T01:10:59.437Z,15.93
2018-09-06T01:13:27.507Z,14.33
2018-09-06T01:15:55.604Z,15.37
2018-09-06T01:18:23.803Z,15.77
2018-09-06T01:20:51.894Z,15.50
2018-09-06T01:23:19.963Z,14.90
2018-09-06T01:25:48.657Z,12.27
2018-09-06T01:28:18.049Z,13.20
2018-09-06T01:30:46.139Z,14.50
2018-09-06T01:33:14.217Z,17.07
2018-09-06T01:35:48.472Z,14.73
2018-09-06T01:38:17.248Z,13.63
2018-09-06T01:40:45.475Z,13.43
2018-09-06T01:43:13.534Z,15.13
2018-09-06T01:45:41.804Z,12.20
2018-09-06T01:48:09.882Z,13.33
2018-09-06T01:50:37.954Z,13.90
2018-09-06T01:53:06.214Z,13.60
2018-09-06T01:55:34.378Z,13.57
2018-09-06T01:58:02.540Z,13.57
2018-09-06T02:00:30.648Z,15.53
2018-09-06T02:02:58.735Z,16.53
2018-09-06T02:05:35.014Z,14.70
2018-09-06T02:08:03.850Z,16.10
2018-09-06T02:10:31.963Z,11.50
2018-09-06T02:13:00.048Z,12.33
2018-09-06T02:15:28.149Z,15.87
2018-09-06T02:17:56.354Z,12.10
2018-09-06T02:20:24.651Z,13.57
2018-09-06T02:22:52.870Z,14.23
2018-09-06T02:25:20.956Z,13.10
2018-09-06T02:27:49.098Z,15.20
2018-09-06T02:30:17.164Z,12.83
2018-09-06T02:32:45.373Z,16.10
2018-09-06T02:35:13.428Z,16.07
2018-09-06T02:37:41.615Z,14.67
2018-09-06T02:40:13.936Z,16.60
2018-09-06T02:42:42.333Z,13.83
2018-09-06T02:45:10.592Z,13.87
2018-09-06T02:47:42.931Z,15.03
2018-09-06T02:50:16.455Z,14.57
2018-09-06T02:52:44.816Z,16.43
2018-09-06T02:55:12.955Z,14.27
2018-09-06T02:57:41.044Z,15.53
2018-09-06T03:00:09.155Z,16.53
2018-09-06T03:02:37.384Z,14.23
2018-09-06T03:05:05.472Z,14.57
2018-09-06T03:07:33.569Z,16.10
2018-09-06T03:10:01.670Z,14.17
2018-09-06T03:12:29.836Z,14.77
2018-09-06T03:14:58.032Z,15.93
2018-09-06T03:17:26.232Z,14.43
2018-09-06T03:19:54.360Z,15.40
2018-09-06T03:22:22.503Z,17.73
2018-09-06T03:24:50.603Z,15.37
2018-09-06T03:27:18.758Z,15.47
2018-09-06T03:29:46.881Z,16.43
2018-09-06T03:32:14.987Z,14.33
2018-09-06T03:34:43.077Z,14.63
2018-09-06T03:37:11.268Z,15.17
2018-09-06T03:39:39.404Z,15.73
2018-09-06T03:42:07.496Z,16.10
2018-09-06T03:44:35.623Z,16.80
2018-09-06T03:47:03.788Z,17.63
2018-09-06T03:49:31.879Z,18.27
2018-09-06T03:51:59.966Z,16.13
2018-09-06T03:54:28.049Z,17.87
2018-09-06T03:56:56.395Z,17.70
2018-09-06T03:59:24.552Z,16.00
2018-09-06T04:01:52.700Z,17.73
2018-09-06T04:04:20.938Z,18.27
2018-09-06T04:06:49.066Z,16.33
2018-09-06T04:09:17.188Z,17.87
2018-09-06T04:11:45.326Z,16.67
2018-09-06T04:14:13.440Z,18.63
2018-09-06T04:16:41.548Z,20.53
2018-09-06T04:19:09.844Z,19.60
2018-09-06T04:21:38.374Z,18.13
2018-09-06T04:24:06.663Z,19.30
2018-09-06T04:26:34.778Z,17.50
2018-09-06T04:29:02.945Z,19.20
2018-09-06T04:31:31.178Z,17.50
2018-09-06T04:33:59.283Z,19.30
2018-09-06T04:36:27.367Z,18.83
2018-09-06T04:38:55.498Z,19.93
2018-09-06T04:41:23.825Z,18.33
2018-09-06T04:43:52.056Z,18.07
2018-09-06T04:46:20.150Z,19.23
2018-09-06T04:48:48.257Z,20.20
2018-09-06T04:51:16.394Z,18.37
2018-09-06T04:53:44.490Z,18.97
2018-09-06T04:56:12.588Z,21.23
2018-09-06T04:58:40.704Z,20.63
2018-09-06T05:03:43.307Z,18.90
2018-09-06T05:06:11.634Z,22.27
2018-09-06T05:08:39.760Z,21.93
2018-09-06T05:11:07.866Z,24.83
2018-09-06T05:13:35.968Z,19.67
2018-09-06T05:16:04.041Z,24.73
2018-09-06T05:18:32.706Z,23.97
2018-09-06T05:21:00.888Z,21.73
2018-09-06T05:23:29.286Z,26.63
2018-09-06T05:25:57.382Z,23.87
2018-09-06T05:28:25.500Z,23.87
2018-09-06T05:30:53.688Z,26.73
2018-09-06T05:33:21.780Z,25.60
2018-09-06T05:35:49.836Z,26.40
2018-09-06T05:38:17.934Z,22.13
2018-09-06T05:40:46.108Z,19.43
2018-09-06T05:43:14.205Z,24.20
2018-09-06T05:45:42.273Z,24.90
2018-09-06T05:48:10.372Z,30.27
2018-09-06T05:50:38.461Z,24.00
2018-09-06T05:53:06.652Z,25.30
2018-09-06T05:55:34.775Z,24.30
2018-09-06T05:58:03.028Z,23.10
2018-09-06T06:00:36.602Z,24.10
2018-09-06T06:03:06.194Z,25.07
2018-09-06T06:05:34.281Z,24.07
2018-09-06T06:08:13.798Z,22.93
2018-09-06T06:10:41.913Z,27.40
2018-09-06T06:13:09.987Z,23.53
2018-09-06T06:15:38.099Z,23.17
2018-09-06T06:18:06.199Z,25.43
2018-09-06T06:20:34.324Z,25.60
2018-09-06T06:23:02.416Z,24.60
2018-09-06T06:25:30.494Z,24.20
2018-09-06T06:27:58.608Z,26.77
2018-09-06T06:30:26.920Z,24.93
2018-09-06T06:32:55.015Z,23.53
2018-09-06T06:35:23.521Z,27.43
2018-09-06T06:37:51.622Z,25.07
2018-09-06T06:40:19.717Z,24.07
2018-09-06T06:42:47.803Z,25.90
2018-09-06T06:45:15.941Z,33.50
2018-09-06T06:47:44.084Z,27.43
2018-09-06T06:50:12.236Z,30.03
2018-09-06T06:52:40.366Z,29.00
2018-09-06T06:55:08.444Z,29.70
2018-09-06T06:57:36.551Z,25.40
2018-09-06T07:00:04.934Z,27.50
2018-09-06T07:02:33.010Z,28.30
2018-09-06T07:05:01.088Z,25.83
2018-09-06T07:07:29.148Z,25.53
2018-09-06T07:09:57.263Z,27.40
2018-09-06T07:12:25.364Z,24.63
2018-09-06T07:14:53.583Z,24.03
2018-09-06T07:17:21.724Z,26.87
2018-09-06T07:19:49.809Z,22.83
2018-09-06T07:22:17.903Z,23.33
2018-09-06T07:24:46.074Z,21.73
2018-09-06T07:27:14.222Z,21.63
2018-09-06T07:29:42.336Z,21.50
2018-09-06T07:32:10.411Z,19.80
2018-09-06T07:34:38.485Z,22.23
2018-09-06T07:37:06.586Z,23.50
2018-09-06T07:39:34.684Z,31.40
2018-09-06T07:42:02.800Z,20.87
2018-09-06T07:44:30.896Z,21.13
2018-09-06T07:46:59.037Z,22.03
2018-09-06T07:49:27.061Z,22.53
2018-09-06T07:51:55.124Z,22.37
2018-09-06T07:54:23.176Z,22.27
2018-09-06T07:56:51.271Z,29.57
2018-09-06T07:59:19.382Z,23.53
2018-09-06T08:01:47.638Z,19.57
2018-09-06T08:04:15.857Z,20.70
2018-09-06T08:06:43.934Z,20.37
2018-09-06T08:09:12.676Z,21.87
2018-09-06T08:11:41.442Z,17.93
2018-09-06T08:14:09.540Z,23.40
2018-09-06T08:16:37.736Z,20.70
2018-09-06T08:19:06.032Z,20.67
2018-09-06T08:21:34.125Z,20.30
2018-09-06T08:24:02.272Z,21.00
2018-09-06T08:26:30.330Z,21.50
2018-09-06T08:28:58.508Z,18.50
2018-09-06T08:31:27.427Z,18.23
2018-09-06T08:33:55.691Z,20.07
2018-09-06T08:36:23.842Z,20.60
2018-09-06T08:38:51.923Z,23.87
2018-09-06T08:41:19.988Z,16.63
2018-09-06T08:43:48.084Z,17.23
2018-09-06T08:46:16.157Z,18.37
2018-09-06T08:48:44.244Z,16.70
2018-09-06T08:51:12.475Z,16.90
2018-09-06T08:53:40.576Z,19.83
2018-09-06T08:56:08.748Z,17.47
2018-09-06T08:58:36.920Z,17.70
2018-09-06T09:01:10.412Z,15.77
2018-09-06T09:03:38.535Z,15.03
2018-09-06T09:06:06.740Z,16.90
2018-09-06T09:08:34.890Z,18.90
2018-09-06T09:11:02.897Z,16.67
2018-09-06T09:13:31.048Z,15.20
2018-09-06T09:15:59.160Z,17.23
2018-09-06T09:18:27.364Z,19.27
2018-09-06T09:20:55.421Z,14.77
2018-09-06T09:23:23.496Z,13.73
2018-09-06T09:25:51.552Z,17.37
2018-09-06T09:28:19.658Z,13.83
2018-09-06T09:30:47.790Z,13.93
2018-09-06T09:33:15.900Z,17.87
2018-09-06T09:35:44.006Z,18.13
2018-09-06T09:38:12.158Z,13.27
2018-09-06T09:40:40.343Z,14.47
2018-09-06T09:43:08.756Z,15.47
2018-09-06T09:45:36.839Z,21.93
2018-09-06T09:48:04.952Z,14.20
2018-09-06T09:53:00.559Z,12.40
2018-09-06T09:55:28.727Z,12.13
2018-09-06T09:57:56.900Z,14.93
2018-09-06T10:00:30.274Z,14.10
2018-09-06T10:03:03.724Z,17.83
2018-09-06T10:05:37.567Z,12.77
2018-09-06T10:08:11.210Z,12.73
2018-09-06T10:10:39.381Z,14.30
2018-09-06T10:13:07.745Z,14.40
2018-09-06T10:15:35.876Z,12.07
2018-09-06T10:18:04.243Z,12.13
2018-09-06T10:20:32.387Z,15.07
2018-09-06T10:23:00.494Z,15.17
2018-09-06T10:25:28.681Z,12.13
2018-09-06T10:27:56.896Z,15.50
2018-09-06T10:30:25.005Z,12.30
2018-09-06T10:32:53.112Z,12.37
2018-09-06T10:35:21.350Z,13.33
2018-09-06T10:37:49.472Z,13.47
2018-09-06T10:40:17.575Z,11.43
2018-09-06T10:42:45.899Z,15.23
2018-09-06T10:45:13.966Z,13.83
2018-09-06T10:47:42.107Z,14.23
2018-09-06T10:50:10.151Z,15.73
2018-09-06T10:52:38.262Z,13.60
2018-09-06T10:55:06.346Z,15.87
2018-09-06T10:57:34.458Z,12.63
2018-09-06T11:00:02.598Z,12.40
2018-09-06T11:02:30.668Z,16.57
2018-09-06T11:04:58.735Z,11.53
2018-09-06T11:07:26.867Z,14.63
2018-09-06T11:09:55.025Z,11.40
2018-09-06T11:12:23.112Z,10.73
2018-09-06T11:14:51.229Z,11.03
2018-09-06T11:17:19.383Z,10.50
2018-09-06T11:19:47.521Z,12.67
2018-09-06T11:22:15.923Z,12.23
2018-09-06T11:24:43.755Z,10.83
2018-09-06T11:27:11.955Z,12.07
2018-09-06T11:29:40.062Z,10.37
2018-09-06T11:32:08.129Z,12.40
2018-09-06T11:34:36.212Z,12.83
2018-09-06T11:37:04.273Z,10.77
2018-09-06T11:39:32.412Z,10.60
2018-09-06T11:42:00.524Z,13.50
2018-09-06T11:44:28.603Z,10.37
2018-09-06T11:46:56.749Z,12.20
2018-09-06T11:49:24.762Z,15.70
2018-09-06T11:51:52.850Z,12.47
2018-09-06T11:54:20.950Z,18.43
2018-09-06T11:56:49.045Z,13.27
2018-09-06T11:59:17.118Z,13.00
2018-09-06T12:01:45.189Z,12.20
2018-09-06T12:04:13.568Z,15.87
2018-09-06T12:06:41.632Z,12.07
2018-09-06T12:09:09.769Z,12.17
2018-09-06T12:11:37.955Z,10.13
2018-09-06T12:14:06.328Z,10.97
2018-09-06T12:16:34.395Z,12.17
2018-09-06T12:19:02.535Z,9.47
2018-09-06T12:21:30.650Z,10.17
2018-09-06T12:23:59.413Z,10.30
2018-09-06T12:26:27.480Z,8.47
2018-09-06T12:28:55.567Z,10.10
2018-09-06T12:31:23.659Z,9.83
2018-09-06T12:33:51.760Z,20.93
2018-09-06T12:36:19.852Z,9.17
2018-09-06T12:38:47.967Z,15.43
2018-09-06T12:41:16.200Z,12.47
2018-09-06T12:43:44.460Z,17.67
2018-09-06T12:46:12.711Z,10.73
2018-09-06T12:48:40.880Z,10.63
2018-09-06T12:51:08.988Z,26.37
2018-09-06T12:53:37.094Z,9.27
2018-09-06T12:56:05.201Z,10.40
2018-09-06T12:58:33.336Z,8.07
2018-09-06T13:01:01.440Z,10.43
2018-09-06T13:03:29.513Z,14.40
2018-09-06T13:05:57.588Z,8.87
2018-09-06T13:08:25.736Z,15.70
2018-09-06T13:10:53.814Z,9.97
2018-09-06T13:13:21.961Z,10.90
2018-09-06T13:15:50.099Z,8.67
2018-09-06T13:18:18.268Z,16.23
2018-09-06T13:20:46.380Z,11.57
2018-09-06T13:23:14.449Z,9.77
2018-09-06T13:25:42.522Z,9.83
2018-09-06T13:28:10.837Z,10.80
2018-09-06T13:30:39.000Z,12.77
2018-09-06T13:33:07.115Z,9.10
2018-09-06T13:35:35.273Z,10.17
2018-09-06T13:38:03.331Z,8.83
2018-09-06T13:40:31.470Z,10.80
2018-09-06T13:42:59.558Z,9.40
2018-09-06T13:45:27.655Z,11.03
2018-09-06T13:47:55.925Z,8.77
2018-09-06T13:50:24.014Z,9.13
2018-09-06T13:52:52.204Z,8.57
2018-09-06T13:55:20.296Z,8.00
2018-09-06T13:57:48.398Z,12.47
2018-09-06T14:00:16.777Z,11.47
2018-09-06T14:02:44.941Z,9.93
2018-09-06T14:05:13.085Z,9.63
2018-09-06T14:07:41.183Z,10.23
2018-09-06T14:10:09.247Z,9.37
2018-09-06T14:12:37.318Z,7.77
2018-09-06T14:15:05.407Z,13.23
2018-09-06T14:17:33.549Z,11.60
2018-09-06T14:20:01.800Z,9.87
2018-09-06T14:22:29.903Z,18.13
2018-09-06T14:24:57.970Z,9.03
2018-09-06T14:27:26.080Z,16.40
2018-09-06T14:29:54.351Z,9.87
2018-09-06T14:32:22.443Z,12.20
2018-09-06T14:34:50.525Z,12.43
2018-09-06T14:37:18.679Z,10.27
2018-09-06T14:39:46.795Z,8.33
2018-09-06T14:42:14.965Z,14.43
2018-09-06T14:44:43.062Z,8.77
2018-09-06T14:47:11.135Z,10.60
2018-09-06T14:49:39.224Z,9.53
2018-09-06T14:52:07.367Z,13.23
2018-09-06T14:54:35.496Z,11.57
2018-09-06T14:57:03.647Z,8.60
2018-09-06T14:59:31.708Z,11.87
2018-09-06T15:01:59.780Z,8.87
2018-09-06T15:04:27.878Z,8.70
2018-09-06T15:06:55.946Z,9.93
2018-09-06T15:09:24.417Z,8.77
2018-09-06T15:11:52.528Z,11.90
2018-09-06T15:14:20.612Z,8.17
2018-09-06T15:16:48.725Z,8.57
2018-09-06T15:19:16.985Z,10.67
2018-09-06T15:21:45.059Z,10.17
2018-09-06T15:24:13.420Z,10.13
2018-09-06T15:26:41.735Z,10.90
2018-09-06T15:29:09.908Z,11.50
2018-09-06T15:31:37.987Z,14.60
2018-09-06T15:34:06.233Z,9.20
2018-09-06T15:36:34.313Z,10.27
2018-09-06T15:39:02.408Z,14.30
2018-09-06T15:41:30.559Z,9.77
2018-09-06T15:43:58.662Z,13.67
2018-09-06T15:46:26.763Z,10.30
2018-09-06T15:48:54.872Z,10.33
2018-09-06T15:51:22.976Z,8.23
2018-09-06T15:53:51.044Z,9.37
2018-09-06T15:56:19.329Z,11.40
2018-09-06T15:58:47.449Z,8.13
2018-09-06T16:01:15.526Z,10.97
2018-09-06T16:03:43.683Z,12.50
2018-09-06T16:06:11.777Z,10.93
2018-09-06T16:08:40.016Z,8.83
2018-09-06T16:11:08.131Z,12.00
2018-09-06T16:13:36.210Z,12.90
2018-09-06T16:16:04.400Z,10.43
2018-09-06T16:18:32.514Z,9.07
2018-09-06T16:21:00.603Z,14.50
2018-09-06T16:26:03.379Z,9.10
2018-09-06T16:28:31.495Z,8.57
2018-09-06T16:30:59.585Z,9.43
2018-09-06T16:33:27.674Z,9.73
2018-09-06T16:35:55.771Z,11.17
2018-09-06T16:38:23.878Z,8.50
2018-09-06T16:40:51.966Z,8.27
2018-09-06T16:43:20.076Z,8.70
2018-09-06T16:45:48.315Z,8.23
2018-09-06T16:48:16.388Z,13.97
2018-09-06T16:50:44.451Z,10.37
2018-09-06T16:53:12.544Z,10.87
2018-09-06T16:55:40.616Z,9.47
2018-09-06T16:58:08.734Z,10.50
2018-09-06T17:00:36.769Z,10.83
2018-09-06T17:03:04.873Z,10.47
2018-09-06T17:05:33.379Z,11.40
2018-09-06T17:08:01.543Z,11.80
2018-09-06T17:10:30.677Z,9.57
2018-09-06T17:12:58.898Z,11.20
2018-09-06T17:15:28.885Z,9.67
2018-09-06T17:17:57.010Z,9.60
2018-09-06T17:20:25.150Z,12.97
2018-09-06T17:22:53.218Z,13.13
2018-09-06T17:25:21.331Z,10.07
2018-09-06T17:27:49.677Z,14.47
2018-09-06T17:30:17.775Z,11.70
2018-09-06T17:32:45.913Z,11.50
2018-09-06T17:35:14.005Z,11.63
2018-09-06T17:37:42.133Z,10.67
2018-09-06T17:40:10.239Z,13.23
2018-09-06T17:42:38.374Z,12.83
2018-09-06T17:45:06.442Z,11.70
2018-09-06T17:47:34.710Z,11.50
2018-09-06T17:50:02.819Z,12.83
2018-09-06T17:52:30.915Z,16.43
2018-09-06T17:54:59.029Z,11.67
2018-09-06T17:57:27.132Z,12.73
2018-09-06T17:59:55.196Z,10.93
2018-09-06T18:02:23.369Z,10.63
2018-09-06T18:04:51.494Z,10.80
2018-09-06T18:07:19.617Z,11.00
2018-09-06T18:09:47.744Z,11.30
2018-09-06T18:12:15.807Z,16.43
2018-09-06T18:14:43.949Z,10.83
2018-09-06T18:17:12.144Z,10.87
2018-09-06T18:19:40.233Z,12.00
2018-09-06T18:22:08.581Z,16.90
2018-09-06T18:24:36.729Z,11.53
2018-09-06T18:27:04.849Z,12.73
2018-09-06T18:29:32.910Z,13.73
2018-09-06T18:32:01.640Z,12.43
2018-09-06T18:34:29.860Z,11.87
2018-09-06T18:36:58.796Z,10.07
2018-09-06T18:39:26.889Z,13.20
2018-09-06T18:41:55.027Z,11.17
2018-09-06T18:44:24.228Z,11.93
2018-09-06T18:46:52.336Z,10.53
2018-09-06T18:49:20.411Z,13.93
2018-09-06T18:51:48.569Z,12.13
2018-09-06T18:54:16.727Z,12.93
2018-09-06T18:56:45.317Z,10.67
2018-09-06T18:59:13.619Z,12.33
2018-09-06T19:01:41.644Z,11.57
2018-09-06T19:04:09.717Z,13.03
2018-09-06T19:06:38.146Z,11.47
2018-09-06T19:09:08.410Z,11.43
2018-09-06T19:11:36.507Z,17.13
2018-09-06T19:14:04.631Z,12.63
2018-09-06T19:16:32.783Z,12.63
2018-09-06T19:19:00.963Z,13.67
2018-09-06T19:21:29.098Z,12.03
2018-09-06T19:23:57.173Z,18.67
2018-09-06T19:26:25.659Z,11.23
2018-09-06T19:28:53.908Z,11.73
2018-09-06T19:31:22.042Z,12.10
2018-09-06T19:33:50.611Z,16.87
2018-09-06T19:36:18.767Z,15.80
2018-09-06T19:38:46.882Z,14.43
2018-09-06T19:41:14.994Z,12.37
2018-09-06T19:43:43.268Z,11.17
2018-09-06T19:46:11.406Z,12.57
2018-09-06T19:48:39.584Z,12.40
2018-09-06T19:51:07.707Z,10.40
2018-09-06T19:53:35.864Z,13.73
2018-09-06T19:56:04.067Z,11.50
2018-09-06T19:58:32.163Z,10.93
2018-09-06T20:01:00.255Z,12.17
2018-09-06T20:03:28.436Z,13.53
2018-09-06T20:05:56.501Z,11.63
2018-09-06T20:08:24.615Z,13.03
2018-09-06T20:10:52.702Z,14.23
2018-09-06T20:13:20.780Z,11.60
2018-09-06T20:15:48.848Z,11.57
2018-09-06T20:18:16.947Z,11.20
2018-09-06T20:20:45.033Z,11.03
2018-09-06T20:23:14.908Z,13.90
2018-09-06T20:25:43.064Z,13.80
2018-09-06T20:28:11.292Z,12.13
2018-09-06T20:30:39.251Z,10.80
2018-09-06T20:33:07.498Z,10.87
2018-09-06T20:35:35.685Z,11.83
2018-09-06T20:38:03.860Z,13.80
2018-09-06T20:40:31.985Z,13.93
2018-09-06T20:43:00.094Z,10.37
2018-09-06T20:45:28.251Z,13.67
2018-09-06T20:47:56.346Z,11.97
2018-09-06T20:50:24.450Z,14.30
2018-09-06T20:52:52.568Z,12.50
2018-09-06T20:55:20.708Z,10.57
2018-09-06T20:57:48.894Z,12.67
2018-09-06T21:00:17.018Z,12.80
2018-09-06T21:02:45.148Z,14.67
2018-09-06T21:05:13.335Z,14.83
2018-09-06T21:07:43.683Z,12.47
2018-09-06T21:10:11.763Z,14.47
2018-09-06T21:12:39.895Z,14.50
2018-09-06T21:15:08.019Z,11.20
2018-09-06T21:17:36.078Z,14.43
2018-09-06T21:20:04.650Z,18.17
2018-09-06T21:22:32.757Z,11.73
2018-09-06T21:25:00.972Z,13.43
2018-09-06T21:27:29.065Z,12.40
2018-09-06T21:29:57.258Z,14.00
2018-09-06T21:32:25.470Z,14.87
2018-09-06T21:34:53.542Z,12.50
2018-09-06T21:37:21.615Z,12.70
2018-09-06T21:39:49.682Z,13.27
2018-09-06T21:42:17.763Z,12.03
2018-09-06T21:44:45.902Z,11.93
2018-09-06T21:47:13.987Z,12.10
2018-09-06T21:49:42.055Z,14.97
2018-09-06T21:52:10.179Z,13.93
2018-09-06T21:54:38.248Z,12.57
2018-09-06T21:57:06.342Z,15.50
2018-09-06T21:59:34.510Z,11.40
2018-09-06T22:02:02.619Z,12.57
2018-09-06T22:04:30.693Z,12.83
2018-09-06T22:06:58.827Z,14.33
2018-09-06T22:09:26.918Z,14.90
2018-09-06T22:11:55.022Z,15.73
2018-09-06T22:14:23.174Z,14.37
2018-09-06T22:16:51.367Z,14.27
2018-09-06T22:19:19.436Z,11.80
2018-09-06T22:21:47.545Z,11.90
2018-09-06T22:24:15.657Z,12.47
2018-09-06T22:26:43.801Z,13.90
2018-09-06T22:29:11.915Z,13.53
2018-09-06T22:31:40.016Z,15.47
2018-09-06T22:34:08.112Z,13.20
2018-09-06T22:36:36.246Z,12.73
2018-09-06T22:39:06.343Z,15.73
2018-09-06T22:41:34.462Z,15.17
2018-09-06T22:44:02.522Z,15.40
2018-09-06T22:46:30.619Z,13.10
2018-09-06T22:48:58.770Z,12.17
2018-09-06T22:51:26.882Z,14.90
2018-09-06T22:53:54.987Z,13.87
2018-09-06T22:56:23.072Z,14.30
2018-09-06T22:58:51.176Z,18.00
2018-09-06T23:01:19.392Z,16.17
2018-09-06T23:03:51.880Z,16.47
2018-09-06T23:06:20.036Z,16.93
2018-09-06T23:08:48.292Z,16.47
2018-09-06T23:11:16.402Z,16.80
2018-09-06T23:13:44.500Z,15.80
2018-09-06T23:16:12.642Z,15.73
2018-09-06T23:18:40.717Z,16.67
2018-09-06T23:21:08.861Z,15.47
2018-09-06T23:23:36.924Z,14.33
2018-09-06T23:26:05.114Z,18.43
2018-09-06T23:28:33.186Z,13.57
2018-09-06T23:31:01.412Z,15.67
2018-09-06T23:33:29.600Z,18.07
2018-09-06T23:35:57.739Z,15.40
2018-09-06T23:38:25.858Z,15.90
2018-09-06T23:40:54.919Z,16.03
2018-09-06T23:43:24.000Z,20.40
2018-09-06T23:45:53.356Z,16.67
2018-09-06T23:48:23.160Z,14.20
2018-09-06T23:50:51.810Z,15.53
2018-09-06T23:53:20.292Z,13.43
2018-09-06T23:55:48.494Z,14.43
2018-09-06T23:58:16.676Z,15.67
